createdAt,value
2018-12-13T00:01:12.886Z,15.72
2018-12-13T00:03:49.885Z,15.32
2018-12-13T00:06:33.235Z,15.03
2018-12-13T00:09:07.118Z,16.95
2018-12-13T00:11:44.227Z,15.45
2018-12-13T00:14:20.113Z,15.08
2018-12-13T00:16:56.089Z,15.63
2018-12-13T00:19:32.705Z,16.23
2018-12-13T00:22:08.513Z,16.05
2018-12-13T00:24:44.536Z,16.30
2018-12-13T00:27:20.293Z,15.28
2018-12-13T00:29:56.340Z,15.80
2018-12-13T00:32:31.978Z,17.42
2018-12-13T00:35:08.054Z,17.10
2018-12-13T00:37:43.725Z,16.10
2018-12-13T00:40:19.467Z,16.17
2018-12-13T00:42:55.315Z,15.85
2018-12-13T00:45:31.048Z,15.55
2018-12-13T00:48:06.722Z,15.72
2018-12-13T00:50:42.491Z,15.70
2018-12-13T00:53:18.390Z,16.55
2018-12-13T00:55:54.206Z,15.48
2018-12-13T00:58:29.917Z,15.72
2018-12-13T01:01:05.585Z,15.95
2018-12-13T01:03:41.328Z,17.27
2018-12-13T01:06:17.506Z,16.60
2018-12-13T01:08:53.864Z,15.70
2018-12-13T01:11:29.965Z,16.85
2018-12-13T01:14:05.774Z,17.25
2018-12-13T01:16:41.713Z,16.57
2018-12-13T01:19:17.426Z,16.87
2018-12-13T01:21:53.327Z,17.25
2018-12-13T01:24:29.002Z,17.92
2018-12-13T01:27:04.904Z,17.75
2018-12-13T01:29:40.683Z,18.02
2018-12-13T01:32:16.457Z,16.62
2018-12-13T01:34:52.464Z,17.27
2018-12-13T01:37:28.229Z,17.77
2018-12-13T01:40:05.561Z,18.67
2018-12-13T01:42:42.146Z,17.98
2018-12-13T01:45:17.833Z,18.17
2018-12-13T01:47:53.858Z,18.20
2018-12-13T01:50:29.481Z,17.67
2018-12-13T01:53:05.455Z,17.87
2018-12-13T01:55:41.129Z,18.92
2018-12-13T01:58:17.513Z,18.02
2018-12-13T02:00:54.333Z,17.95
2018-12-13T02:03:30.212Z,19.30
2018-12-13T02:06:05.978Z,19.23
2018-12-13T02:08:41.668Z,18.67
2018-12-13T02:11:16.775Z,18.48
2018-12-13T02:13:51.968Z,20.75
2018-12-13T02:16:28.787Z,19.73
2018-12-13T02:19:04.572Z,19.82
2018-12-13T02:21:41.586Z,18.77
2018-12-13T02:24:18.317Z,19.23
2018-12-13T02:26:54.269Z,19.12
2018-12-13T02:29:30.213Z,19.48
2018-12-13T02:32:05.779Z,20.27
2018-12-13T02:34:42.092Z,20.50
2018-12-13T02:37:19.160Z,20.43
2018-12-13T02:39:55.671Z,19.32
2018-12-13T02:42:31.362Z,18.95
2018-12-13T02:45:07.415Z,18.50
2018-12-13T02:47:45.080Z,19.20
2018-12-13T02:51:46.166Z,18.92
2018-12-13T02:54:24.896Z,18.10
2018-12-13T02:57:01.922Z,18.75
2018-12-13T02:59:38.538Z,18.95
2018-12-13T03:02:14.593Z,17.85
2018-12-13T03:04:50.381Z,17.15
2018-12-13T03:07:26.299Z,17.70
2018-12-13T03:10:03.116Z,18.40
2018-12-13T03:12:38.968Z,19.12
2018-12-13T03:15:14.753Z,18.73
2018-12-13T03:17:50.608Z,17.98
2018-12-13T03:20:26.487Z,18.23
2018-12-13T03:23:02.520Z,18.37
2018-12-13T03:25:39.086Z,19.05
2018-12-13T03:28:14.747Z,18.92
2018-12-13T03:30:50.536Z,17.35
2018-12-13T03:33:26.990Z,17.77
2018-12-13T03:36:03.562Z,17.50
2018-12-13T03:38:39.119Z,18.40
2018-12-13T03:41:15.132Z,18.52
2018-12-13T03:43:50.730Z,17.90
2018-12-13T03:46:26.844Z,17.70
2018-12-13T03:49:03.235Z,18.32
2018-12-13T03:51:39.208Z,17.70
2018-12-13T03:54:15.164Z,17.40
2018-12-13T03:56:50.868Z,18.45
2018-12-13T03:59:26.571Z,18.07
2018-12-13T04:02:02.634Z,17.98
2018-12-13T04:04:38.397Z,17.85
2018-12-13T04:07:14.299Z,17.92
2018-12-13T04:09:50.811Z,18.12
2018-12-13T04:12:26.821Z,18.37
2018-12-13T04:15:02.446Z,17.75
2018-12-13T04:17:38.233Z,15.93
2018-12-13T04:20:15.794Z,16.97
2018-12-13T04:22:51.779Z,16.62
2018-12-13T04:25:27.719Z,19.05
2018-12-13T04:28:03.494Z,18.20
2018-12-13T04:30:39.324Z,17.20
2018-12-13T04:33:15.078Z,18.37
2018-12-13T04:35:51.341Z,18.62
2018-12-13T04:38:27.816Z,18.57
2018-12-13T04:41:05.606Z,20.75
2018-12-13T04:43:44.413Z,21.27
2018-12-13T04:46:20.104Z,19.07
2018-12-13T04:48:55.945Z,20.90
2018-12-13T04:51:31.732Z,21.40
2018-12-13T04:54:07.539Z,21.97
2018-12-13T04:56:43.248Z,20.52
2018-12-13T04:59:20.568Z,21.15
2018-12-13T05:01:57.249Z,21.07
2018-12-13T05:04:32.943Z,20.37
2018-12-13T05:07:09.851Z,20.62
2018-12-13T05:09:45.790Z,20.08
2018-12-13T05:12:21.666Z,19.57
2018-12-13T05:14:56.546Z,19.27
2018-12-13T05:17:32.315Z,18.82
2018-12-13T05:20:08.189Z,20.08
2018-12-13T05:22:44.758Z,19.25
2018-12-13T05:25:20.768Z,18.20
2018-12-13T05:29:21.080Z,18.60
2018-12-13T05:31:57.083Z,17.37
2018-12-13T05:34:32.907Z,19.67
2018-12-13T05:37:08.715Z,18.10
2018-12-13T05:39:45.246Z,18.45
2018-12-13T05:42:21.142Z,19.00
2018-12-13T05:44:56.763Z,19.15
2018-12-13T05:47:32.607Z,19.92
2018-12-13T05:50:08.658Z,18.80
2018-12-13T05:52:45.204Z,19.05
2018-12-13T05:55:20.990Z,18.00
2018-12-13T05:57:56.843Z,19.80
2018-12-13T06:00:32.796Z,17.90
2018-12-13T06:03:08.502Z,18.80
2018-12-13T06:05:44.247Z,18.35
2018-12-13T06:08:19.955Z,19.82
2018-12-13T06:10:55.846Z,17.80
2018-12-13T06:13:32.541Z,18.85
2018-12-13T06:16:07.378Z,19.10
2018-12-13T06:18:43.160Z,16.12
2018-12-13T06:21:18.952Z,17.87
2018-12-13T06:23:54.683Z,18.30
2018-12-13T06:26:30.533Z,17.62
2018-12-13T06:29:06.314Z,18.65
2018-12-13T06:31:42.226Z,18.20
2018-12-13T06:34:18.023Z,17.27
2018-12-13T06:36:53.873Z,16.25
2018-12-13T06:39:29.649Z,15.60
2018-12-13T06:42:05.507Z,15.23
2018-12-13T06:44:41.303Z,14.75
2018-12-13T06:47:17.158Z,15.05
2018-12-13T06:49:53.184Z,15.18
2018-12-13T06:52:29.029Z,14.33
2018-12-13T06:55:05.152Z,14.95
2018-12-13T06:57:41.530Z,14.15
2018-12-13T07:00:17.301Z,15.20
2018-12-13T07:02:52.278Z,14.60
2018-12-13T07:05:28.237Z,14.75
2018-12-13T07:08:07.799Z,15.03
2018-12-13T07:10:41.973Z,14.83
2018-12-13T07:13:17.867Z,15.75
2018-12-13T07:15:52.642Z,15.70
2018-12-13T07:18:28.514Z,16.07
2018-12-13T07:21:04.236Z,15.40
2018-12-13T07:23:39.935Z,16.15
2018-12-13T07:26:15.663Z,15.05
2018-12-13T07:28:51.327Z,15.78
2018-12-13T07:31:27.778Z,14.90
2018-12-13T07:34:04.206Z,14.93
2018-12-13T07:36:40.035Z,14.45
2018-12-13T07:39:15.919Z,15.40
2018-12-13T07:41:52.657Z,15.43
2018-12-13T07:44:28.544Z,15.80
2018-12-13T07:47:04.510Z,14.35
2018-12-13T07:49:40.259Z,15.03
2018-12-13T07:52:16.652Z,14.75
2018-12-13T07:54:53.252Z,15.30
2018-12-13T07:57:28.939Z,14.28
2018-12-13T08:00:05.345Z,14.90
2018-12-13T08:02:41.587Z,14.53
2018-12-13T08:05:16.651Z,13.78
2018-12-13T08:07:52.450Z,13.95
2018-12-13T08:10:28.605Z,12.85
2018-12-13T08:13:04.607Z,14.55
2018-12-13T08:15:40.459Z,14.33
2018-12-13T08:18:17.291Z,13.80
2018-12-13T08:20:54.627Z,15.43
2018-12-13T08:23:30.504Z,14.43
2018-12-13T08:26:06.491Z,14.03
2018-12-13T08:28:42.540Z,12.78
2018-12-13T08:31:19.074Z,14.33
2018-12-13T08:33:55.195Z,14.15
2018-12-13T08:36:31.005Z,13.08
2018-12-13T08:39:08.306Z,11.40
2018-12-13T08:41:45.183Z,12.35
2018-12-13T08:44:21.112Z,11.78
2018-12-13T08:46:56.972Z,11.05
2018-12-13T08:49:32.584Z,11.40
2018-12-13T08:52:08.449Z,11.48
2018-12-13T08:54:44.178Z,11.48
2018-12-13T08:57:20.235Z,10.93
2018-12-13T08:59:56.004Z,11.28
2018-12-13T09:02:31.818Z,11.97
2018-12-13T09:05:07.933Z,10.03
2018-12-13T09:07:43.730Z,10.00
2018-12-13T09:10:19.487Z,10.45
2018-12-13T09:12:55.297Z,11.40
2018-12-13T09:15:31.182Z,10.23
2018-12-13T09:18:07.052Z,10.55
2018-12-13T09:20:43.839Z,11.12
2018-12-13T09:23:19.894Z,10.90
2018-12-13T09:25:55.677Z,10.30
2018-12-13T09:28:31.398Z,10.18
2018-12-13T09:31:07.525Z,10.13
2018-12-13T09:33:43.369Z,9.50
2018-12-13T09:36:19.367Z,9.85
2018-12-13T09:38:55.050Z,9.05
2018-12-13T09:41:30.989Z,8.68
2018-12-13T09:44:09.823Z,9.93
2018-12-13T09:46:47.074Z,9.28
2018-12-13T09:49:22.915Z,8.83
2018-12-13T09:51:58.895Z,8.10
2018-12-13T09:54:35.598Z,8.50
2018-12-13T09:57:12.589Z,8.35
2018-12-13T09:59:49.273Z,7.70
2018-12-13T10:02:25.236Z,8.63
2018-12-13T10:05:00.013Z,7.55
2018-12-13T10:07:35.755Z,8.60
2018-12-13T10:10:11.569Z,7.78
2018-12-13T10:12:47.289Z,7.95
2018-12-13T10:15:23.334Z,7.80
2018-12-13T10:17:59.252Z,7.42
2018-12-13T10:20:35.330Z,6.95
2018-12-13T10:23:10.944Z,7.87
2018-12-13T10:25:46.796Z,8.23
2018-12-13T10:29:47.146Z,6.92
2018-12-13T10:32:23.346Z,6.53
2018-12-13T10:34:59.495Z,7.92
2018-12-13T10:37:36.102Z,7.00
2018-12-13T10:40:12.226Z,7.62
2018-12-13T10:42:50.157Z,7.10
2018-12-13T10:45:26.084Z,7.05
2018-12-13T10:49:31.176Z,7.55
2018-12-13T10:52:09.589Z,7.53
2018-12-13T10:54:47.397Z,8.55
2018-12-13T10:57:23.460Z,7.37
2018-12-13T11:00:00.230Z,7.70
2018-12-13T11:02:54.050Z,8.28
2018-12-13T11:05:30.024Z,9.00
2018-12-13T11:08:06.130Z,7.97
2018-12-13T11:10:41.908Z,8.30
2018-12-13T11:13:17.689Z,7.50
2018-12-13T11:15:53.643Z,9.08
2018-12-13T11:18:29.526Z,8.78
2018-12-13T11:21:05.383Z,8.35
2018-12-13T11:23:41.062Z,8.40
2018-12-13T11:26:16.954Z,8.65
2018-12-13T11:30:05.990Z,8.50
2018-12-13T11:32:40.989Z,8.75
2018-12-13T11:35:16.794Z,8.45
2018-12-13T11:37:52.690Z,8.78
2018-12-13T11:40:29.686Z,8.43
2018-12-13T11:43:07.730Z,8.80
2018-12-13T11:45:43.579Z,8.35
2018-12-13T11:48:19.345Z,8.73
2018-12-13T11:50:55.369Z,7.90
2018-12-13T11:53:31.189Z,8.83
2018-12-13T11:56:07.224Z,8.35
2018-12-13T11:58:43.894Z,8.60
2018-12-13T12:01:19.607Z,8.83
2018-12-13T12:03:55.438Z,8.00
2018-12-13T12:06:31.324Z,7.87
2018-12-13T12:09:12.261Z,8.10
2018-12-13T12:11:46.422Z,8.03
2018-12-13T12:14:23.146Z,8.28
2018-12-13T12:16:59.778Z,8.13
2018-12-13T12:19:36.053Z,8.50
2018-12-13T12:22:12.347Z,7.60
2018-12-13T12:24:48.119Z,8.48
2018-12-13T12:27:25.078Z,7.53
2018-12-13T12:30:00.867Z,7.85
2018-12-13T12:32:36.826Z,7.70
2018-12-13T12:35:12.645Z,8.28
2018-12-13T12:37:48.211Z,7.80
2018-12-13T12:40:24.042Z,9.00
2018-12-13T12:42:59.899Z,9.05
2018-12-13T12:45:35.590Z,7.50
2018-12-13T12:48:11.260Z,8.63
2018-12-13T12:50:48.278Z,7.83
2018-12-13T12:53:24.202Z,8.15
2018-12-13T12:56:00.034Z,7.97
2018-12-13T12:58:35.917Z,7.47
2018-12-13T13:01:11.927Z,6.78
2018-12-13T13:03:47.622Z,7.40
2018-12-13T13:06:23.617Z,6.90
2018-12-13T13:08:59.430Z,6.25
2018-12-13T13:11:35.425Z,7.37
2018-12-13T13:14:11.400Z,6.28
2018-12-13T13:16:47.266Z,6.80
2018-12-13T13:19:23.310Z,6.03
2018-12-13T13:21:59.205Z,6.72
2018-12-13T13:24:35.222Z,6.37
2018-12-13T13:27:12.193Z,6.58
2018-12-13T13:29:47.971Z,6.50
2018-12-13T13:32:25.170Z,6.70
2018-12-13T13:35:00.589Z,5.83
2018-12-13T13:37:36.537Z,6.17
2018-12-13T13:40:12.637Z,5.55
2018-12-13T13:42:48.438Z,5.85
2018-12-13T13:45:26.995Z,4.92
2018-12-13T13:48:03.770Z,5.33
2018-12-13T13:50:40.510Z,5.58
2018-12-13T13:53:16.299Z,5.35
2018-12-13T13:55:52.381Z,5.85
2018-12-13T13:58:29.037Z,5.90
2018-12-13T14:01:04.927Z,5.55
2018-12-13T14:03:40.798Z,5.03
2018-12-13T14:06:16.598Z,5.47
2018-12-13T14:08:52.365Z,5.28
2018-12-13T14:11:28.265Z,5.22
2018-12-13T14:14:04.514Z,4.78
2018-12-13T14:16:41.049Z,5.40
2018-12-13T14:19:16.750Z,5.08
2018-12-13T14:21:52.675Z,4.75
2018-12-13T14:24:28.449Z,4.22
2018-12-13T14:34:03.742Z,5.08
2018-12-13T14:36:39.434Z,4.45
2018-12-13T14:39:15.430Z,4.80
2018-12-13T14:41:52.817Z,4.30
2018-12-13T14:44:31.023Z,4.15
2018-12-13T14:47:07.007Z,4.40
2018-12-13T14:49:42.819Z,4.45
2018-12-13T14:52:18.999Z,4.67
2018-12-13T14:54:54.727Z,4.45
2018-12-13T14:57:31.692Z,4.12
2018-12-13T15:00:10.438Z,4.33
2018-12-13T15:02:47.554Z,4.47
2018-12-13T15:05:24.086Z,4.17
2018-12-13T15:08:00.158Z,4.33
2018-12-13T15:10:37.075Z,4.22
2018-12-13T15:13:13.190Z,6.35
2018-12-13T15:15:48.794Z,5.35
2018-12-13T15:18:23.902Z,4.78
2018-12-13T15:20:59.790Z,5.30
2018-12-13T15:23:35.531Z,7.47
2018-12-13T15:26:11.375Z,8.83
2018-12-13T15:28:47.204Z,9.13
2018-12-13T15:31:23.021Z,5.90
2018-12-13T15:33:59.046Z,4.87
2018-12-13T15:36:35.031Z,5.45
2018-12-13T15:39:10.814Z,4.95
2018-12-13T15:41:46.526Z,5.33
2018-12-13T15:44:22.223Z,5.03
2018-12-13T15:46:58.136Z,5.30
2018-12-13T15:49:33.865Z,5.22
2018-12-13T15:52:09.666Z,5.25
2018-12-13T15:54:45.386Z,5.37
2018-12-13T15:57:21.459Z,5.00
2018-12-13T15:59:57.294Z,5.00
2018-12-13T16:02:33.118Z,4.53
2018-12-13T16:05:09.286Z,5.10
2018-12-13T16:07:45.790Z,5.15
2018-12-13T16:10:21.806Z,5.00
2018-12-13T16:12:57.690Z,7.05
2018-12-13T16:15:33.430Z,5.90
2018-12-13T16:18:09.286Z,5.55
2018-12-13T16:20:46.358Z,5.22
2018-12-13T16:23:22.742Z,5.60
2018-12-13T16:25:58.654Z,5.92
2018-12-13T16:28:34.802Z,5.83
2018-12-13T16:31:10.522Z,6.30
2018-12-13T16:33:47.903Z,5.42
2018-12-13T16:36:25.950Z,6.78
2018-12-13T16:39:01.726Z,7.00
2018-12-13T16:41:38.605Z,6.50
2018-12-13T16:44:15.298Z,6.35
2018-12-13T16:46:51.255Z,6.22
2018-12-13T16:49:27.047Z,6.22
2018-12-13T16:52:03.046Z,6.95
2018-12-13T16:54:39.021Z,5.80
2018-12-13T16:57:15.521Z,5.97
2018-12-13T16:59:51.214Z,7.03
2018-12-13T17:02:27.073Z,6.50
2018-12-13T17:05:03.814Z,6.20
2018-12-13T17:07:41.706Z,9.58
2018-12-13T17:10:18.406Z,28.40
2018-12-13T17:12:53.636Z,15.03
2018-12-13T17:15:29.432Z,8.88
2018-12-13T17:18:05.363Z,7.47
2018-12-13T17:20:41.426Z,6.50
2018-12-13T17:23:17.349Z,6.50
2018-12-13T17:25:55.037Z,6.97
2018-12-13T17:28:31.574Z,8.85
2018-12-13T17:31:08.102Z,8.58
2018-12-13T17:33:44.562Z,10.58
2018-12-13T17:36:20.425Z,10.35
2018-12-13T17:38:56.160Z,9.68
2018-12-13T17:41:32.151Z,10.63
2018-12-13T17:44:08.193Z,10.48
2018-12-13T17:46:44.642Z,12.47
2018-12-13T17:49:20.466Z,10.85
2018-12-13T17:51:56.322Z,10.63
2018-12-13T17:54:32.527Z,9.73
2018-12-13T17:57:09.277Z,10.25
2018-12-13T17:59:45.165Z,10.28
2018-12-13T18:02:22.023Z,10.35
2018-12-13T18:04:57.807Z,10.70
2018-12-13T18:07:33.468Z,9.43
2018-12-13T18:10:10.863Z,9.98
2018-12-13T18:12:47.358Z,11.03
2018-12-13T18:15:23.446Z,9.78
2018-12-13T18:17:59.377Z,9.93
2018-12-13T18:20:34.529Z,11.38
2018-12-13T18:23:11.332Z,29.85
2018-12-13T18:25:47.157Z,35.73
2018-12-13T18:28:23.082Z,23.60
2018-12-13T18:30:59.714Z,12.82
2018-12-13T18:33:34.686Z,12.55
2018-12-13T18:36:10.626Z,11.53
2018-12-13T18:38:46.343Z,11.33
2018-12-13T18:41:22.423Z,11.80
2018-12-13T18:43:59.074Z,10.50
2018-12-13T18:46:34.985Z,12.18
2018-12-13T18:49:10.858Z,12.80
2018-12-13T18:51:46.749Z,11.88
2018-12-13T18:54:22.460Z,16.95
2018-12-13T18:56:58.122Z,21.62
2018-12-13T18:59:33.900Z,11.73
2018-12-13T19:02:09.857Z,12.03
2018-12-13T19:04:46.434Z,11.85
2018-12-13T19:07:22.474Z,12.88
2018-12-13T19:09:58.601Z,14.03
2018-12-13T19:12:34.547Z,13.68
2018-12-13T19:15:10.335Z,12.37
2018-12-13T19:17:48.630Z,11.57
2018-12-13T19:20:27.070Z,11.28
2018-12-13T19:23:03.682Z,11.57
2018-12-13T19:25:39.745Z,12.45
2018-12-13T19:28:15.638Z,12.73
2018-12-13T19:30:52.171Z,12.60
2018-12-13T19:33:26.990Z,11.95
2018-12-13T19:36:02.905Z,12.80
2018-12-13T19:38:38.714Z,14.38
2018-12-13T19:41:14.662Z,14.05
2018-12-13T19:43:50.562Z,14.15
2018-12-13T19:46:27.386Z,14.00
2018-12-13T19:49:03.197Z,13.98
2018-12-13T19:51:39.715Z,13.93
2018-12-13T19:54:16.487Z,13.83
2018-12-13T19:56:52.410Z,13.30
2018-12-13T19:59:28.130Z,19.20
2018-12-13T20:02:04.254Z,24.20
2018-12-13T20:04:40.937Z,14.98
2018-12-13T20:07:17.039Z,15.38
2018-12-13T20:09:53.062Z,14.07
2018-12-13T20:12:28.797Z,14.63
2018-12-13T20:15:05.150Z,13.95
2018-12-13T20:17:41.759Z,14.28
2018-12-13T20:20:17.594Z,14.78
2018-12-13T20:22:53.446Z,14.85
2018-12-13T20:25:29.147Z,14.83
2018-12-13T20:28:04.990Z,13.30
2018-12-13T20:30:40.092Z,14.50
2018-12-13T20:33:15.790Z,15.23
2018-12-13T20:35:51.730Z,14.43
2018-12-13T20:38:28.696Z,14.60
2018-12-13T20:41:05.450Z,15.58
2018-12-13T20:43:41.518Z,14.87
2018-12-13T20:46:17.352Z,14.43
2018-12-13T20:48:53.125Z,14.90
2018-12-13T20:51:29.282Z,13.83
2018-12-13T20:54:06.335Z,14.50
2018-12-13T20:56:42.858Z,14.75
2018-12-13T20:59:18.853Z,14.28
2018-12-13T21:01:55.076Z,14.55
2018-12-13T21:04:31.684Z,13.43
2018-12-13T21:07:12.914Z,13.35
2018-12-13T21:09:49.319Z,14.20
2018-12-13T21:12:26.224Z,12.78
2018-12-13T21:15:02.006Z,12.60
2018-12-13T21:17:37.933Z,12.98
2018-12-13T21:20:16.043Z,14.53
2018-12-13T21:22:53.856Z,12.53
2018-12-13T21:25:30.460Z,13.35
2018-12-13T21:28:06.266Z,12.75
2018-12-13T21:30:42.306Z,13.78
2018-12-13T21:33:18.898Z,13.48
2018-12-13T21:35:55.087Z,14.43
2018-12-13T21:38:31.200Z,13.30
2018-12-13T21:41:13.543Z,15.08
2018-12-13T21:43:46.699Z,13.88
2018-12-13T21:46:22.640Z,13.85
2018-12-13T21:48:58.310Z,14.03
2018-12-13T21:51:34.193Z,14.13
2018-12-13T21:54:10.172Z,13.65
2018-12-13T21:56:46.589Z,14.83
2018-12-13T21:59:22.946Z,15.53
2018-12-13T22:01:59.246Z,14.58
2018-12-13T22:04:35.619Z,14.65
2018-12-13T22:07:11.702Z,14.28
2018-12-13T22:09:47.373Z,15.10
2018-12-13T22:12:23.715Z,14.07
2018-12-13T22:15:02.630Z,12.90
2018-12-13T22:17:39.405Z,13.93
2018-12-13T22:20:16.523Z,13.80
2018-12-13T22:22:53.107Z,13.78
2018-12-13T22:25:29.282Z,13.53
2018-12-13T22:28:06.778Z,14.00
2018-12-13T22:30:43.087Z,13.62
2018-12-13T22:33:19.692Z,13.32
2018-12-13T22:35:55.655Z,13.62
2018-12-13T22:38:31.622Z,13.03
2018-12-13T22:41:08.690Z,13.28
2018-12-13T22:43:45.382Z,12.50
2018-12-13T22:46:21.193Z,13.30
2018-12-13T22:48:56.958Z,13.45
2018-12-13T22:51:32.847Z,13.10
2018-12-13T22:54:08.543Z,14.70
2018-12-13T22:56:44.619Z,13.10
2018-12-13T22:59:21.432Z,14.00
2018-12-13T23:01:57.360Z,13.38
2018-12-13T23:04:34.093Z,13.93
2018-12-13T23:07:10.290Z,13.05
2018-12-13T23:09:45.348Z,13.00
2018-12-13T23:12:21.190Z,13.20
2018-12-13T23:14:57.799Z,13.35
2018-12-13T23:17:34.018Z,13.25
2018-12-13T23:20:10.252Z,13.95
2018-12-13T23:22:47.186Z,13.50
2018-12-13T23:25:24.977Z,12.88
2018-12-13T23:28:00.965Z,13.03
2018-12-13T23:30:36.878Z,13.70
2018-12-13T23:33:13.591Z,13.32
2018-12-13T23:35:49.415Z,13.85
2018-12-13T23:38:25.342Z,14.03
2018-12-13T23:41:01.045Z,13.43
2018-12-13T23:43:37.154Z,14.28
2018-12-13T23:46:13.067Z,13.48
2018-12-13T23:48:48.967Z,13.98
2018-12-13T23:51:25.601Z,13.90
2018-12-13T23:54:01.389Z,13.48
2018-12-13T23:56:37.484Z,14.53
2018-12-13T23:59:15.516Z,14.38
